WEATHER DATA

YESTERDAY
Time Temp. Dewp. Hum. Wind dir Wind speed Wind gust Bar. 1h Prec. 24h Prec.
00:00 7.5 2 68 231 0.6 1.7 1016.8 0.0000 0.0000
00:11 7.3 2 69 235 0.6 1.7 1016.6 0.0000 0.0000
00:20 7.3 2 69 239 0.6 1.9 1016.6 0.0000 0.0000
00:50 6.8 1.7 70 244 0.6 1.7 1016.9 0.0000 0.0000
01:00 6.7 1.8 71 270 0.6 1.7 1017 0.0000 0.0000
01:11 6.7 1.8 71 270 0.6 1.7 1017 0.0000 0.0000
01:21 6.6 1.7 71 302 0.6 1.4 1017.1 0.0000 0.0000
01:30 6.6 1.7 71 270 0.6 1.9 1016.9 0.0000 0.0000
01:40 6.5 1.8 72 270 0.6 2.2 1016.9 0.0000 0.0000
01:51 6.4 1.7 72 303 0.6 1.7 1016.8 0.0000 0.0000
02:01 6.3 1.6 72 253 0.6 1.4 1016.8 0.0000 0.0000
02:21 6.2 1.5 72 270 0.6 1.7 1016.6 0.0000 0.0000
02:31 6.1 1.4 72 270 0.6 1.4 1016.6 0.0000 0.0000
02:41 6 1.5 73 270 0.6 1.7 1016.6 0.0000 0.0000
02:51 5.9 1.4 73 270 0.6 1.4 1016.6 0.0000 0.0000
03:01 5.9 1.4 73 270 0.6 1.7 1016.6 0.0000 0.0000
03:11 6 1.3 72 270 0.6 1.4 1016.5 0.0000 0.0000
03:21 6 1.3 72 270 0.6 1.9 1016.6 0.0000 0.0000
03:31 5.8 1.3 73 270 0.6 1.9 1016.6 0.0000 0.0000
03:41 5.7 1.2 73 248 0.6 1.4 1016.5 0.0000 0.0000
03:51 5.5 1.2 74 270 0.6 1.4 1016.6 0.0000 0.0000
04:01 5.5 1.2 74 270 0.6 1.4 1016.5 0.0000 0.0000
04:11 5.4 1.1 74 303 0.6 1.7 1016.5 0.0000 0.0000
04:21 5.4 1.1 74 270 0.6 1.4 1016.6 0.0000 0.0000
04:31 5.4 1.1 74 288 0.6 2.2 1016.5 0.0000 0.0000
04:41 5.5 1.1 73 270 0.6 1.7 1016.7 0.0000 0.0000
04:51 5.6 1.1 73 270 0.6 1.4 1016.7 0.0000 0.0000
05:01 5.7 1.1 72 303 0.6 1.7 1016.6 0.0000 0.0000
05:12 5.8 1 71 315 0.6 1.4 1016.5 0.0000 0.0000
05:21 5.9 0.9 70 288 0.6 2.2 1016.6 0.0000 0.0000
05:31 5.9 0.7 69 293 0.6 1.9 1016.7 0.0000 0.0000
05:41 6 0.8 69 270 0.6 1.7 1016.7 0.0000 0.0000
05:52 6.1 0.6 68 285 0.6 1.4 1016.6 0.0000 0.0000
06:01 6.2 0.5 67 251 0.6 1.4 1016.8 0.0000 0.0000
06:07 6.3 0.4 66 270 0.6 1.4 1016.8 0.0000 0.0000
06:22 6.5 0.4 65 288 0.6 1.7 1016.8 0.0000 0.0000
06:32 6.6 0.3 64 270 0.6 1.7 1017.1 0.0000 0.0000
06:42 6.6 0.3 64 270 0.6 1.4 1017.1 0.0000 0.0000
06:52 6.7 0.4 64 270 0.6 1.7 1017.1 0.0000 0.0000
07:02 6.8 0.3 63 248 0.6 1.7 1017.3 0.0000 0.0000
07:12 7 0.4 63 236 0.6 1.7 1017.3 0.0000 0.0000
07:22 7.2 0.4 62 228 1.1 1.9 1017.4 0.0000 0.0000
07:32 7.4 0.6 62 230 1.1 1.9 1017.4 0.0000 0.0000
07:42 7.6 0.8 62 226 1.1 1.7 1017.7 0.0000 0.0000
07:52 8 1.2 62 229 1.1 1.9 1017.9 0.0000 0.0000
08:02 8.4 1.3 61 230 1.1 1.9 1017.8 0.0000 0.0000
08:12 8.8 1.7 61 236 1.1 1.9 1017.8 0.0000 0.0000
08:22 9.4 2 60 237 1.1 1.7 1018.1 0.0000 0.0000
08:32 9.9 2.3 59 231 0.6 1.7 1018.1 0.0000 0.0000
08:43 10.6 2.9 59 299 1.1 2.2 1018.2 0.0000 0.0000
08:52 11.4 3.2 57 307 1.4 2.5 1018.3 0.0000 0.0000
09:02 12.2 2.9 53 270 1.4 3.9 1018.4 0.0000 0.0000
09:12 12.9 3.6 53 331 1.4 3.6 1018.7 0.0000 0.0000
09:23 13.4 3.5 51 301 1.4 3.9 1018.5 0.0000 0.0000
09:32 13.7 4 52 343 1.7 4.2 1018.6 0.0000 0.0000
09:42 14.1 4.4 52 329 1.7 4.2 1018.7 0.0000 0.0000
09:53 14.5 4.5 51 343 2.2 3.9 1018.9 0.0000 0.0000
10:03 14.8 5.1 52 350 2.2 5 1018.8 0.0000 0.0000
10:12 15.1 5 51 341 1.9 3.6 1019 0.0000 0.0000
10:23 15.4 5.3 51 342 1.9 5 1019 0.0000 0.0000
10:33 15.7 5.6 51 349 1.9 5.3 1019.2 0.0000 0.0000
10:43 15.9 5.8 51 349 1.9 3.9 1019.2 0.0000 0.0000
10:52 16.2 5.5 49 347 1.9 3.9 1019.2 0.0000 0.0000
11:03 16.4 6 50 357 2.2 5 1019.3 0.0000 0.0000
11:13 16.5 6.1 50 344 1.9 4.4 1019.4 0.0000 0.0000
11:23 16.7 5.6 48 339 1.9 4.4 1019.4 0.0000 0.0000
11:33 16.9 5.5 47 345 2.2 5 1019.5 0.0000 0.0000
11:43 17.1 6 48 349 2.2 5.6 1019.6 0.0000 0.0000
11:53 17.2 6.1 48 347 2.2 5.6 1019.6 0.0000 0.0000
12:03 17.2 5.8 47 347 2.2 5 1019.6 0.0000 0.0000
12:13 17.2 5.5 46 346 2.2 5.3 1019.5 0.0000 0.0000
12:23 17.3 5.6 46 341 2.2 4.2 1019.5 0.0000 0.0000
12:33 17.4 6 47 340 1.9 3.9 1019.6 0.0000 0.0000
12:44 17.5 6.1 47 350 1.9 5.6 1019.7 0.0000 0.0000
12:54 17.4 6 47 342 1.9 4.2 1019.5 0.0000 0.0000
13:03 17.3 6.8 50 355 2.5 5 1019.5 0.0000 0.0000
13:13 17.2 7 51 340 2.5 5 1019.5 0.0000 0.0000
13:24 17.2 6.7 50 355 2.5 5.3 1019.5 0.0000 0.0000
13:34 17.2 6.4 49 356 2.2 3.9 1019.4 0.0000 0.0000
13:43 17.3 6.2 48 344 2.2 5.3 1019.2 0.0000 0.0000
13:54 17.3 5.9 47 346 1.9 4.2 1019.3 0.0000 0.0000
14:04 17.3 5.9 47 352 2.2 4.4 1019.2 0.0000 0.0000
14:14 17.4 6.6 49 347 2.2 4.2 1019.1 0.0000 0.0000
14:24 17.3 7.4 52 344 1.9 5.3 1019 0.0000 0.0000
14:34 17.1 7.5 53 329 1.7 4.2 1018.9 0.0000 0.0000
14:44 17.1 7.7 54 339 2.2 4.2 1018.8 0.0000 0.0000
14:54 17.1 7.5 53 338 1.9 5 1018.9 0.0000 0.0000
15:06 17 7.1 52 347 2.2 5.8 1018.6 0.0000 0.0000
15:16 16.9 7.5 54 339 1.7 3.6 1018.6 0.0000 0.0000
15:27 16.9 7.5 54 342 1.9 4.4 1018.5 0.0000 0.0000
15:36 16.8 7.7 55 332 1.9 4.2 1018.6 0.0000 0.0000
15:46 16.6 7.5 55 343 1.9 4.2 1018.7 0.0000 0.0000
15:57 16.5 8 57 340 2.2 6.1 1018.6 0.0000 0.0000
16:07 16.4 8.1 58 346 2.2 5 1018.6 0.0000 0.0000
16:17 16.2 7.9 58 342 1.9 4.2 1018.7 0.0000 0.0000
16:27 15.9 7.9 59 350 1.9 4.2 1018.4 0.0000 0.0000
16:37 15.7 8.2 61 344 2.2 4.4 1018.5 0.0000 0.0000
16:47 15.5 8 61 329 1.7 4.4 1018.7 0.0000 0.0000
16:57 15.3 8.1 62 320 1.4 3.3 1018.5 0.0000 0.0000
17:07 15.2 7.5 60 345 1.9 5 1018.5 0.0000 0.0000
17:17 15 7.3 60 341 1.4 3.6 1018.5 0.0000 0.0000
17:27 15 7.3 60 341 1.7 3.3 1018.5 0.0000 0.0000
17:37 14.9 7.5 61 329 1.7 5 1018.5 0.0000 0.0000
17:48 14.7 7.3 61 324 1.4 3.9 1018.6 0.0000 0.0000
17:57 14.6 6.9 60 327 1.4 3.6 1018.4 0.0000 0.0000
18:07 14.5 6.6 59 336 1.4 3.3 1018.4 0.0000 0.0000
18:18 14.4 5.7 56 324 1.4 3.6 1018.4 0.0000 0.0000
18:28 14.4 4.4 51 332 1.7 3.9 1018.5 0.0000 0.0000
18:38 14.4 3.5 48 356 1.7 3.9 1018.6 0.0000 0.0000
18:48 14.4 4.7 52 350 1.7 3.3 1018.6 0.0000 0.0000
18:58 14.4 4.7 52 341 1.4 3.3 1018.9 0.0000 0.0000
19:08 14.3 4.6 52 333 1.4 2.2 1018.7 0.0000 0.0000
19:18 14.3 4 50 298 1.4 3.9 1018.7 0.0000 0.0000
19:28 14.2 3.9 50 303 1.4 2.5 1018.8 0.0000 0.0000
19:38 14.2 3.4 48 317 1.4 2.5 1018.9 0.0000 0.0000
19:48 14.1 2.4 45 293 1.1 3.1 1018.9 0.0000 0.0000
19:58 14.2 1.5 42 270 1.1 2.5 1019.1 0.0000 0.0000
20:09 14.1 0.7 40 247 1.1 1.7 1019.1 0.0000 0.0000
20:18 14.1 0.7 40 255 1.1 1.7 1019.3 0.0000 0.0000
20:28 14.1 0.4 39 270 1.1 2.2 1019.4 0.0000 0.0000
20:39 14.1 0.7 40 279 1.1 1.9 1019.5 0.0000 0.0000
20:49 14.1 0.7 40 270 1.1 3.3 1019.7 0.0000 0.0000
20:59 14.1 0.7 40 252 0.6 1.9 1019.9 0.0000 0.0000
21:08 14 0.3 39 297 1.1 2.5 1020.1 0.0000 0.0000
21:19 14 0.3 39 295 1.1 2.2 1020.2 0.0000 0.0000
21:29 14 0.3 39 292 1.4 3.3 1020.1 0.0000 0.0000
21:39 14 0.3 39 243 1.1 1.9 1020.3 0.0000 0.0000
21:50 14 0.6 40 270 1.1 2.2 1020.3 0.0000 0.0000
21:59 13.8 0.4 40 244 0.6 1.7 1020.3 0.0000 0.0000
22:09 13.7 1 42 261 1.1 3.6 1020.4 0.0000 0.0000
22:19 13.5 1.2 43 248 1.1 2.2 1020.4 0.0000 0.0000
22:30 13.4 1.7 45 249 1.1 1.9 1020.6 0.0000 0.0000
22:40 13.3 1.9 46 258 1.1 1.9 1020.5 0.0000 0.0000
22:49 13.3 1.9 46 244 1.1 1.9 1020.5 0.0000 0.0000
23:00 13.2 2.1 47 234 1.1 1.7 1020.4 0.0000 0.0000
23:10 13.1 2.1 47 240 1.1 1.9 1020.5 0.0000 0.0000
23:20 13 2 47 238 1.1 2.2 1020.6 0.0000 0.0000
23:30 13 1.7 46 248 1.1 3.1 1020.6 0.0000 0.0000
23:40 13 1.7 46 239 1.1 3.1 1020.6 0.0000 0.0000
23:50 12.9 1.6 46 245 1.1 2.2 1020.6 0.0000 0.0000

DAY STATISTIC

2020-04-04
TEMPERATURE
AVERAGE
12.1
HIGH
17.5
12:44
LOW
5.4
04:11
PRESSURE
AVERAGE
1018.4
HIGH
1020.6
22:30
LOW
1016.5
03:11
DEWPOINT
AVERAGE
3.5
HIGH
8.2
16:37
LOW
0.3
06:32
HUMIDITY
AVERAGE
57
HIGH
74
03:51
LOW
39
20:28
WIND SPEED
AVERAGE
1.3
HIGH
2.5
13:03
WIND GUST
AVERAGE
3.0
HIGH
6.1
15:57
WIND DIRECTION
PREVAILING
N
32.9%
N
32.9
NE
0.0
E
0.0
SE
0.0
S
0.0
SW
15.7
W
31.4
NW
20.0
PRECIPITATION
RAIN HOUR
0.0
RAIN DAY
0.0
TEMPERATURE (°C)
LOW
5.4
HIGH
17.5
AVERAGE
12.1
PRESSURE (hpa)
LOW
1016.5
HIGH
1020.6
AVERAGE
1018.4
DEVICE